Time;durP1;ratioP1;P1;durP2;ratioP2;P2;SDS_P1;SDS_P2;PMS_P1;PMS_P2;Temp;Humidity;BMP_temperature;BMP_pressure;BME280_temperature;BME280_humidity;BME280_pressure;Samples;Min_cycle;Max_cycle;Signal;HPM_P1;HPM_P2
2023/10/04 00:01:29;;;;;;;1.08;0.90;;;;;;;;;;5080162;28;20472;-65
2023/10/04 00:03:56;;;;;;;1.40;0.90;;;;;;;;;;5080187;28;20302;-65
2023/10/04 00:06:24;;;;;;;1.02;0.80;;;;;;;;;;5080136;28;20196;-65
2023/10/04 00:08:51;;;;;;;0.77;0.77;;;;;;;;;;5080072;28;20303;-65
2023/10/04 00:11:20;;;;;;;0.80;0.70;;;;;;;;;;5079887;28;20674;-65
2023/10/04 00:13:47;;;;;;;0.93;0.82;;;;;;;;;;5079864;28;20631;-65
2023/10/04 00:16:15;;;;;;;1.20;0.90;;;;;;;;;;5079962;28;20225;-65
2023/10/04 00:18:43;;;;;;;0.82;0.70;;;;;;;;;;5079719;28;20243;-65
2023/10/04 00:21:11;;;;;;;1.20;0.80;;;;;;;;;;5080162;28;20223;-65
2023/10/04 00:23:39;;;;;;;0.80;0.80;;;;;;;;;;5079663;28;20208;-65
2023/10/04 00:26:07;;;;;;;0.98;0.80;;;;;;;;;;5080059;28;20196;-65
2023/10/04 00:28:38;;;;;;;0.82;0.77;;;;;;;;;;5079682;28;20271;-65
2023/10/04 00:31:06;;;;;;;0.75;0.75;;;;;;;;;;5079774;28;20208;-65
2023/10/04 00:33:35;;;;;;;1.45;0.80;;;;;;;;;;5079557;28;20242;-65
2023/10/04 00:36:03;;;;;;;0.70;0.70;;;;;;;;;;5079903;28;20254;-65
2023/10/04 00:38:31;;;;;;;0.88;0.73;;;;;;;;;;5079978;28;20499;-65
2023/10/04 00:40:59;;;;;;;0.95;0.77;;;;;;;;;;5079913;28;20204;-65
2023/10/04 00:43:26;;;;;;;0.68;0.60;;;;;;;;;;5079219;28;20586;-65
2023/10/04 00:45:55;;;;;;;0.88;0.68;;;;;;;;;;5079614;28;20243;-65
2023/10/04 00:48:29;;;;;;;0.80;0.80;;;;;;;;;;5079378;28;20305;-65
2023/10/04 00:50:59;;;;;;;1.77;0.90;;;;;;;;;;5079485;28;20238;-65
2023/10/04 00:53:29;;;;;;;0.65;0.60;;;;;;;;;;5079360;28;20212;-65
2023/10/04 00:55:57;;;;;;;1.17;0.85;;;;;;;;;;5079055;28;20228;-65
2023/10/04 00:58:25;;;;;;;0.90;0.80;;;;;;;;;;5079192;28;20204;-65
2023/10/04 01:00:53;;;;;;;0.70;0.70;;;;;;;;;;5079347;28;20303;-65
2023/10/04 01:03:24;;;;;;;0.65;0.65;;;;;;;;;;5078892;28;20235;-65
2023/10/04 01:05:52;;;;;;;1.00;0.80;;;;;;;;;;5078869;28;20201;-65
2023/10/04 01:08:21;;;;;;;0.77;0.75;;;;;;;;;;5078833;28;20205;-65
2023/10/04 01:10:49;;;;;;;0.85;0.70;;;;;;;;;;5078829;28;20341;-65
2023/10/04 01:13:21;;;;;;;1.23;0.80;;;;;;;;;;5078630;28;20251;-65
2023/10/04 01:15:51;;;;;;;0.75;0.75;;;;;;;;;;5078676;28;20782;-65
2023/10/04 01:18:19;;;;;;;0.80;0.63;;;;;;;;;;5078697;28;20616;-65
2023/10/04 01:20:48;;;;;;;0.93;0.80;;;;;;;;;;5078840;28;20235;-65
2023/10/04 01:23:18;;;;;;;1.35;0.70;;;;;;;;;;5078735;28;20253;-65
2023/10/04 01:25:46;;;;;;;0.95;0.80;;;;;;;;;;5078578;28;20219;-65
2023/10/04 01:28:17;;;;;;;0.60;0.60;;;;;;;;;;5078257;28;20610;-65
2023/10/04 01:30:45;;;;;;;0.75;0.60;;;;;;;;;;5078689;28;20215;-65
2023/10/04 01:33:15;;;;;;;0.90;0.65;;;;;;;;;;5078253;28;20259;-65
2023/10/04 01:35:44;;;;;;;0.90;0.75;;;;;;;;;;5078481;28;20224;-65
2023/10/04 01:38:13;;;;;;;0.95;0.70;;;;;;;;;;5078042;28;20580;-65
2023/10/04 01:40:43;;;;;;;0.80;0.80;;;;;;;;;;5078212;28;20253;-65
2023/10/04 01:43:15;;;;;;;0.90;0.80;;;;;;;;;;5078367;28;20205;-65
2023/10/04 01:45:44;;;;;;;0.60;0.60;;;;;;;;;;5078268;28;20207;-65
2023/10/04 01:48:15;;;;;;;0.90;0.73;;;;;;;;;;5078232;28;20208;-65
2023/10/04 01:50:43;;;;;;;0.80;0.70;;;;;;;;;;5078316;28;20553;-65
2023/10/04 01:53:11;;;;;;;0.55;0.55;;;;;;;;;;5078203;28;20212;-65
2023/10/04 01:55:40;;;;;;;0.70;0.60;;;;;;;;;;5077871;28;20204;-65
2023/10/04 01:58:08;;;;;;;0.95;0.88;;;;;;;;;;5077810;28;20204;-65
2023/10/04 02:00:36;;;;;;;0.90;0.70;;;;;;;;;;5077986;28;20670;-65
2023/10/04 02:03:04;;;;;;;0.55;0.55;;;;;;;;;;5077817;28;20657;-65
2023/10/04 02:05:37;;;;;;;0.95;0.73;;;;;;;;;;5077802;28;20231;-65
2023/10/04 02:08:12;;;;;;;0.88;0.73;;;;;;;;;;5078139;28;20204;-65
2023/10/04 02:10:41;;;;;;;0.93;0.82;;;;;;;;;;5077694;28;20230;-65
2023/10/04 02:13:14;;;;;;;0.57;0.57;;;;;;;;;;5077439;28;20212;-65
2023/10/04 02:15:43;;;;;;;0.73;0.70;;;;;;;;;;5077060;28;20250;-65
2023/10/04 02:18:11;;;;;;;0.77;0.70;;;;;;;;;;5077853;28;20230;-65
2023/10/04 02:20:39;;;;;;;0.68;0.68;;;;;;;;;;5077858;28;20256;-65
2023/10/04 02:23:07;;;;;;;0.98;0.73;;;;;;;;;;5077427;28;20204;-65
2023/10/04 02:25:35;;;;;;;0.70;0.70;;;;;;;;;;5077797;28;20568;-65
2023/10/04 02:28:09;;;;;;;0.77;0.70;;;;;;;;;;5077566;28;20208;-65
2023/10/04 02:30:38;;;;;;;1.00;0.60;;;;;;;;;;5077343;28;20210;-65
2023/10/04 02:33:09;;;;;;;1.38;0.70;;;;;;;;;;5077436;28;20212;-65
2023/10/04 02:35:43;;;;;;;0.73;0.73;;;;;;;;;;5077612;28;20215;-65
2023/10/04 02:38:16;;;;;;;0.70;0.70;;;;;;;;;;5077525;28;20232;-65
2023/10/04 02:40:44;;;;;;;1.00;0.73;;;;;;;;;;5077530;28;20212;-65
2023/10/04 02:43:15;;;;;;;0.70;0.60;;;;;;;;;;5077316;28;20216;-65
2023/10/04 02:45:44;;;;;;;0.90;0.80;;;;;;;;;;5077478;28;20303;-65
2023/10/04 02:48:13;;;;;;;1.08;0.60;;;;;;;;;;5076850;28;20204;-65
2023/10/04 02:50:40;;;;;;;1.08;0.70;;;;;;;;;;5076644;28;20569;-65
2023/10/04 02:53:12;;;;;;;1.05;0.63;;;;;;;;;;5077203;28;20311;-65
2023/10/04 02:55:40;;;;;;;1.10;0.60;;;;;;;;;;5076683;28;20212;-64
2023/10/04 02:58:07;;;;;;;0.75;0.60;;;;;;;;;;5076726;28;20594;-64
2023/10/04 03:00:42;;;;;;;0.88;0.77;;;;;;;;;;5077287;28;20248;-64
2023/10/04 03:03:12;;;;;;;0.73;0.70;;;;;;;;;;5077137;28;20207;-64
2023/10/04 03:05:40;;;;;;;0.70;0.70;;;;;;;;;;5076975;28;20216;-64
2023/10/04 03:08:08;;;;;;;0.80;0.70;;;;;;;;;;5076774;28;20208;-64
2023/10/04 03:10:36;;;;;;;0.93;0.85;;;;;;;;;;5077176;28;20254;-64
2023/10/04 03:13:11;;;;;;;0.95;0.80;;;;;;;;;;5076702;28;20235;-64
2023/10/04 03:15:39;;;;;;;0.70;0.70;;;;;;;;;;5076821;28;20210;-64
2023/10/04 03:18:17;;;;;;;1.30;0.80;;;;;;;;;;5076972;28;20256;-64
2023/10/04 03:20:54;;;;;;;1.00;0.90;;;;;;;;;;5076878;28;20208;-64
2023/10/04 03:23:21;;;;;;;0.80;0.70;;;;;;;;;;5076725;28;20204;-64
2023/10/04 03:25:49;;;;;;;1.08;0.80;;;;;;;;;;5076912;28;20212;-64
2023/10/04 03:28:17;;;;;;;0.80;0.80;;;;;;;;;;5079370;28;20211;-64
2023/10/04 03:30:45;;;;;;;0.95;0.70;;;;;;;;;;5081035;28;20239;-64
2023/10/04 03:33:13;;;;;;;0.88;0.80;;;;;;;;;;5080432;28;20204;-64
2023/10/04 03:35:43;;;;;;;1.20;0.73;;;;;;;;;;5080619;28;20204;-64
2023/10/04 03:38:12;;;;;;;0.80;0.70;;;;;;;;;;5080417;28;20227;-64
2023/10/04 03:40:40;;;;;;;0.90;0.70;;;;;;;;;;5080402;28;20208;-64
2023/10/04 03:43:08;;;;;;;1.25;0.85;;;;;;;;;;5080151;28;20239;-64
2023/10/04 03:45:39;;;;;;;0.68;0.60;;;;;;;;;;5080197;28;20215;-64
2023/10/04 03:48:10;;;;;;;0.60;0.60;;;;;;;;;;5079960;28;20306;-64
2023/10/04 03:50:38;;;;;;;0.93;0.70;;;;;;;;;;5055396;28;20248;-64
2023/10/04 03:53:05;;;;;;;0.80;0.70;;;;;;;;;;5039674;28;20572;-64
2023/10/04 03:55:34;;;;;;;0.90;0.90;;;;;;;;;;5039756;28;20209;-64
2023/10/04 03:58:02;;;;;;;0.80;0.70;;;;;;;;;;5039914;28;20234;-64
2023/10/04 04:00:32;;;;;;;1.13;0.90;;;;;;;;;;5039405;28;20198;-64
2023/10/04 04:03:00;;;;;;;1.38;1.10;;;;;;;;;;5039063;28;20487;-64
2023/10/04 04:05:27;;;;;;;0.90;0.77;;;;;;;;;;5039397;28;20220;-64
2023/10/04 04:07:55;;;;;;;0.77;0.77;;;;;;;;;;5039704;28;20209;-64
2023/10/04 04:10:24;;;;;;;1.15;0.77;;;;;;;;;;5040032;28;20313;-64
2023/10/04 04:12:54;;;;;;;0.80;0.80;;;;;;;;;;5040164;28;20206;-64
2023/10/04 04:15:23;;;;;;;0.90;0.75;;;;;;;;;;5039532;28;20212;-64
2023/10/04 04:17:51;;;;;;;0.80;0.70;;;;;;;;;;5039133;28;20225;-64
2023/10/04 04:20:19;;;;;;;1.35;0.88;;;;;;;;;;5039454;28;20272;-64
2023/10/04 04:22:50;;;;;;;1.00;0.90;;;;;;;;;;5039407;28;20312;-64
2023/10/04 04:25:19;;;;;;;1.20;0.85;;;;;;;;;;5039349;28;20209;-64
2023/10/04 04:27:47;;;;;;;1.08;0.93;;;;;;;;;;5039773;28;20271;-64
2023/10/04 04:30:19;;;;;;;1.40;0.80;;;;;;;;;;5039377;28;20205;-64
2023/10/04 04:32:49;;;;;;;1.20;0.88;;;;;;;;;;5038752;28;20206;-64
2023/10/04 04:35:22;;;;;;;1.17;0.80;;;;;;;;;;5039280;28;20234;-64
2023/10/04 04:37:55;;;;;;;1.08;0.82;;;;;;;;;;5039165;28;20233;-64
2023/10/04 04:40:26;;;;;;;0.93;0.90;;;;;;;;;;5038139;28;20581;-64
2023/10/04 04:42:53;;;;;;;1.10;1.00;;;;;;;;;;5039004;28;20206;-64
2023/10/04 04:45:25;;;;;;;1.52;0.98;;;;;;;;;;5040104;28;20216;-64
2023/10/04 04:47:55;;;;;;;1.10;1.00;;;;;;;;;;5037124;28;20202;-64
2023/10/04 04:50:25;;;;;;;1.02;0.82;;;;;;;;;;5037805;28;20291;-64
2023/10/04 04:52:53;;;;;;;1.00;0.90;;;;;;;;;;5038183;28;20206;-64
2023/10/04 04:55:26;;;;;;;1.00;0.85;;;;;;;;;;5037945;28;20213;-64
2023/10/04 04:57:53;;;;;;;1.15;1.02;;;;;;;;;;5038257;28;20284;-64
2023/10/04 05:03:04;;;;;;;1.05;0.95;;;;;;;;;;5034554;28;20201;-64
2023/10/04 05:05:32;;;;;;;0.90;0.85;;;;;;;;;;5037473;28;20248;-64
2023/10/04 05:08:00;;;;;;;1.10;1.00;;;;;;;;;;5037171;28;20276;-64
2023/10/04 05:10:34;;;;;;;1.05;0.95;;;;;;;;;;5037175;28;20301;-64
2023/10/04 05:13:02;;;;;;;1.05;0.90;;;;;;;;;;5037428;28;20202;-64
2023/10/04 05:15:33;;;;;;;1.25;1.00;;;;;;;;;;5037517;28;20308;-64
2023/10/04 05:18:10;;;;;;;1.27;1.17;;;;;;;;;;5036518;28;20288;-64
2023/10/04 05:20:38;;;;;;;1.52;0.90;;;;;;;;;;5036385;28;20581;-64
2023/10/04 05:23:06;;;;;;;1.10;1.00;;;;;;;;;;5036604;28;20304;-64
2023/10/04 05:25:33;;;;;;;1.52;1.00;;;;;;;;;;5036428;28;20215;-64
2023/10/04 05:28:04;;;;;;;1.10;1.00;;;;;;;;;;5037195;28;20216;-64
2023/10/04 05:30:34;;;;;;;1.13;1.02;;;;;;;;;;5037009;28;20212;-64
2023/10/04 05:33:02;;;;;;;1.20;1.05;;;;;;;;;;5037011;28;20271;-64
2023/10/04 05:35:29;;;;;;;1.85;1.00;;;;;;;;;;5036676;28;20206;-64
2023/10/04 05:37:56;;;;;;;1.23;1.10;;;;;;;;;;5036986;28;20311;-64
2023/10/04 05:40:28;;;;;;;1.27;1.02;;;;;;;;;;5036410;28;20560;-64
2023/10/04 05:42:56;;;;;;;1.80;1.40;;;;;;;;;;5036683;28;20206;-64
2023/10/04 05:45:25;;;;;;;1.60;1.17;;;;;;;;;;5035593;28;20197;-64
2023/10/04 05:47:54;;;;;;;1.48;1.10;;;;;;;;;;5036115;28;20485;-64
2023/10/04 05:50:22;;;;;;;1.10;1.00;;;;;;;;;;5036002;28;20238;-64
2023/10/04 05:52:49;;;;;;;1.60;1.17;;;;;;;;;;5035210;28;20589;-64
2023/10/04 05:55:18;;;;;;;1.73;1.40;;;;;;;;;;5035744;28;20248;-64
2023/10/04 05:57:46;;;;;;;1.50;1.10;;;;;;;;;;5035632;28;20949;-64
2023/10/04 06:00:25;;;;;;;1.83;1.38;;;;;;;;;;5035002;28;20218;-64
2023/10/04 06:02:54;;;;;;;1.75;1.33;;;;;;;;;;5035808;28;20205;-64
2023/10/04 06:05:22;;;;;;;1.80;1.48;;;;;;;;;;5035562;28;20555;-64
2023/10/04 06:07:50;;;;;;;1.38;1.10;;;;;;;;;;5035551;28;20228;-64
2023/10/04 06:10:18;;;;;;;1.42;1.30;;;;;;;;;;5035041;28;20206;-64
2023/10/04 06:12:46;;;;;;;1.40;1.30;;;;;;;;;;5035192;28;20589;-64
2023/10/04 06:15:16;;;;;;;1.52;1.25;;;;;;;;;;5036215;28;20227;-64
2023/10/04 06:17:44;;;;;;;1.30;1.20;;;;;;;;;;5034982;28;20503;-64
2023/10/04 06:20:25;;;;;;;1.30;1.20;;;;;;;;;;5034609;28;20206;-64
2023/10/04 06:22:56;;;;;;;1.25;1.15;;;;;;;;;;5034756;28;20206;-64
2023/10/04 06:25:24;;;;;;;1.88;1.15;;;;;;;;;;5034866;28;20198;-64
2023/10/04 06:27:52;;;;;;;1.50;1.20;;;;;;;;;;5034560;28;20201;-64
2023/10/04 06:30:23;;;;;;;1.35;1.23;;;;;;;;;;5034382;28;20213;-64
2023/10/04 06:32:52;;;;;;;1.65;1.23;;;;;;;;;;5034928;28;20633;-64
2023/10/04 06:35:24;;;;;;;1.40;1.20;;;;;;;;;;5034117;28;20205;-64
2023/10/04 06:37:52;;;;;;;1.50;1.30;;;;;;;;;;5034186;28;20222;-64
2023/10/04 06:40:20;;;;;;;1.30;1.13;;;;;;;;;;5033822;28;20216;-64
2023/10/04 06:42:48;;;;;;;1.52;1.40;;;;;;;;;;5033168;28;20209;-64
2023/10/04 06:45:16;;;;;;;1.80;1.17;;;;;;;;;;5034964;28;20517;-64
2023/10/04 06:47:44;;;;;;;1.30;1.20;;;;;;;;;;5035105;28;20201;-64
2023/10/04 06:50:15;;;;;;;1.55;1.27;;;;;;;;;;5051183;28;20243;-64
2023/10/04 06:52:45;;;;;;;1.40;1.30;;;;;;;;;;5074429;28;20196;-64
2023/10/04 06:55:13;;;;;;;2.08;1.60;;;;;;;;;;5074215;28;20287;-64
2023/10/04 06:57:40;;;;;;;1.40;1.20;;;;;;;;;;5074575;28;20221;-64
2023/10/04 07:00:14;;;;;;;1.25;1.15;;;;;;;;;;5074071;28;20299;-64
2023/10/04 07:02:45;;;;;;;1.20;1.10;;;;;;;;;;5075975;28;20595;-64
2023/10/04 07:05:15;;;;;;;1.30;1.20;;;;;;;;;;5078718;28;20204;-64
2023/10/04 07:07:42;;;;;;;1.73;1.27;;;;;;;;;;5079974;28;20258;-64
2023/10/04 07:10:14;;;;;;;1.50;1.30;;;;;;;;;;5078455;28;20654;-64
2023/10/04 07:12:42;;;;;;;1.52;1.27;;;;;;;;;;5078182;28;20222;-64
2023/10/04 07:15:10;;;;;;;1.40;1.30;;;;;;;;;;5078555;28;20472;-64
2023/10/04 07:17:39;;;;;;;1.33;1.23;;;;;;;;;;5078035;28;20249;-64
2023/10/04 07:20:07;;;;;;;1.45;1.20;;;;;;;;;;5077259;28;20200;-64
2023/10/04 07:22:36;;;;;;;2.00;1.50;;;;;;;;;;5077883;28;20208;-64
2023/10/04 07:25:07;;;;;;;1.60;1.33;;;;;;;;;;5077354;28;20214;-64
2023/10/04 07:27:36;;;;;;;1.40;1.27;;;;;;;;;;5077184;28;20620;-64
2023/10/04 07:30:04;;;;;;;1.60;1.30;;;;;;;;;;5076996;28;20299;-64
2023/10/04 07:35:33;;;;;;;2.03;1.20;;;;;;;;;;5078333;28;20204;-64
2023/10/04 07:38:04;;;;;;;1.50;1.40;;;;;;;;;;5079693;28;20387;-64
2023/10/04 07:40:32;;;;;;;1.35;1.25;;;;;;;;;;5079711;28;20196;-64
2023/10/04 07:43:01;;;;;;;1.35;1.25;;;;;;;;;;5079050;28;20200;-64
2023/10/04 07:45:29;;;;;;;1.83;1.50;;;;;;;;;;5079157;28;20215;-64
2023/10/04 07:47:57;;;;;;;1.30;1.20;;;;;;;;;;5078673;28;20572;-64
2023/10/04 07:50:24;;;;;;;2.40;1.55;;;;;;;;;;5078561;28;20236;-64
2023/10/04 07:52:54;;;;;;;2.95;1.38;;;;;;;;;;5078325;28;20806;-64
2023/10/04 07:55:22;;;;;;;3.20;1.55;;;;;;;;;;5078413;28;20492;-64
2023/10/04 07:57:51;;;;;;;1.75;1.35;;;;;;;;;;5077824;28;20228;-64
2023/10/04 08:00:21;;;;;;;2.05;1.40;;;;;;;;;;5078219;28;20204;-64
2023/10/04 08:02:49;;;;;;;2.40;1.15;;;;;;;;;;5078053;28;20204;-64
2023/10/04 08:05:19;;;;;;;1.80;1.50;;;;;;;;;;5077978;28;20231;-64
2023/10/04 08:07:48;;;;;;;2.30;1.50;;;;;;;;;;5078570;28;20542;-64
2023/10/04 08:10:15;;;;;;;1.65;1.40;;;;;;;;;;5077788;28;20204;-64
2023/10/04 08:12:43;;;;;;;1.70;1.50;;;;;;;;;;5078017;28;20215;-64
2023/10/04 08:15:13;;;;;;;2.25;1.35;;;;;;;;;;5076130;28;20204;-64
2023/10/04 08:17:43;;;;;;;1.80;1.63;;;;;;;;;;5077259;28;20205;-64
2023/10/04 08:20:13;;;;;;;3.40;1.65;;;;;;;;;;5077099;28;20211;-64
2023/10/04 08:22:41;;;;;;;1.80;1.50;;;;;;;;;;5078274;28;20201;-64
2023/10/04 08:25:10;;;;;;;2.10;1.40;;;;;;;;;;5076622;28;20211;-64
2023/10/04 08:27:37;;;;;;;1.88;1.45;;;;;;;;;;5076528;28;20259;-64
2023/10/04 08:30:06;;;;;;;2.05;1.67;;;;;;;;;;5076926;28;20203;-64
2023/10/04 08:32:33;;;;;;;2.30;1.50;;;;;;;;;;5077329;28;20202;-64
2023/10/04 08:35:03;;;;;;;1.67;1.42;;;;;;;;;;5077488;28;20250;-64
2023/10/04 08:37:31;;;;;;;2.25;1.70;;;;;;;;;;5076936;28;20219;-64
2023/10/04 08:39:58;;;;;;;2.13;1.60;;;;;;;;;;5077904;28;20677;-64
2023/10/04 08:42:26;;;;;;;1.67;1.58;;;;;;;;;;5076492;28;20215;-65
2023/10/04 08:44:53;;;;;;;2.05;1.30;;;;;;;;;;5077364;28;20240;-64
2023/10/04 08:47:23;;;;;;;1.75;1.40;;;;;;;;;;5077263;28;20200;-64
2023/10/04 08:49:54;;;;;;;2.08;1.58;;;;;;;;;;5075562;28;20499;-64
2023/10/04 08:52:26;;;;;;;1.45;1.35;;;;;;;;;;5076311;28;20247;-64
2023/10/04 08:54:54;;;;;;;2.10;1.70;;;;;;;;;;5076309;28;20248;-64
2023/10/04 08:57:22;;;;;;;1.55;1.45;;;;;;;;;;5076360;28;20212;-64
2023/10/04 08:59:51;;;;;;;2.10;1.58;;;;;;;;;;5076249;28;20326;-64
2023/10/04 09:02:20;;;;;;;1.92;1.60;;;;;;;;;;5076837;28;20211;-64
2023/10/04 09:04:48;;;;;;;2.25;1.50;;;;;;;;;;5076017;28;20212;-64
2023/10/04 09:07:19;;;;;;;2.70;1.70;;;;;;;;;;5076668;28;20472;-64
2023/10/04 09:09:49;;;;;;;2.50;1.63;;;;;;;;;;5076060;28;20196;-64
2023/10/04 09:12:17;;;;;;;3.13;1.40;;;;;;;;;;5075588;28;20215;-64
2023/10/04 09:14:46;;;;;;;1.83;1.50;;;;;;;;;;5076280;28;20583;-64
2023/10/04 09:17:14;;;;;;;4.03;1.70;;;;;;;;;;5076268;28;20200;-64
2023/10/04 09:19:41;;;;;;;2.63;1.50;;;;;;;;;;5074837;28;20506;-64
2023/10/04 09:22:10;;;;;;;1.90;1.50;;;;;;;;;;5075135;28;20282;-64
2023/10/04 09:24:53;;;;;;;2.40;1.55;;;;;;;;;;5075384;28;20212;-64
2023/10/04 09:27:23;;;;;;;2.63;1.48;;;;;;;;;;5075968;28;20212;-64
2023/10/04 09:29:53;;;;;;;2.25;1.60;;;;;;;;;;5075475;28;20623;-64
2023/10/04 09:32:35;;;;;;;1.75;1.60;;;;;;;;;;5076071;28;20635;-64
2023/10/04 09:35:03;;;;;;;1.27;1.17;;;;;;;;;;5075206;28;20214;-65
2023/10/04 09:37:31;;;;;;;2.58;1.52;;;;;;;;;;5075304;28;20295;-65
2023/10/04 09:40:07;;;;;;;2.30;1.40;;;;;;;;;;5075686;28;20220;-65
2023/10/04 09:42:47;;;;;;;1.80;1.30;;;;;;;;;;5075670;28;20472;-64
2023/10/04 09:45:15;;;;;;;1.65;1.23;;;;;;;;;;5075341;28;20314;-64
2023/10/04 09:47:43;;;;;;;1.90;1.52;;;;;;;;;;5075363;28;20239;-64
2023/10/04 09:50:13;;;;;;;2.47;1.75;;;;;;;;;;5074943;28;20335;-64
2023/10/04 09:52:40;;;;;;;1.88;1.48;;;;;;;;;;5075836;28;20339;-64
2023/10/04 09:55:13;;;;;;;2.50;1.63;;;;;;;;;;5075060;28;20589;-64
2023/10/04 09:57:43;;;;;;;2.15;1.60;;;;;;;;;;5074550;28;20204;-64
2023/10/04 10:00:18;;;;;;;1.95;1.50;;;;;;;;;;5074842;28;20318;-64
2023/10/04 10:02:48;;;;;;;2.08;1.45;;;;;;;;;;5074830;28;20195;-64
2023/10/04 10:05:21;;;;;;;2.72;1.40;;;;;;;;;;5074500;28;20212;-64
2023/10/04 10:07:49;;;;;;;1.75;1.55;;;;;;;;;;5074192;28;20336;-64
2023/10/04 10:10:19;;;;;;;1.80;1.40;;;;;;;;;;5074091;28;20200;-64
2023/10/04 10:12:47;;;;;;;2.00;1.65;;;;;;;;;;5075059;28;20204;-64
2023/10/04 10:15:15;;;;;;;1.50;1.40;;;;;;;;;;5074619;28;20472;-64
2023/10/04 10:17:44;;;;;;;2.05;1.73;;;;;;;;;;5074849;28;20281;-64
2023/10/04 10:20:12;;;;;;;1.45;1.35;;;;;;;;;;5074051;28;20680;-64
2023/10/04 10:22:54;;;;;;;2.25;1.73;;;;;;;;;;5074295;28;20421;-64
2023/10/04 10:25:22;;;;;;;1.73;1.30;;;;;;;;;;5073934;28;20204;-64
2023/10/04 10:27:49;;;;;;;1.73;1.45;;;;;;;;;;5074060;28;20200;-64
2023/10/04 10:30:18;;;;;;;1.95;1.65;;;;;;;;;;5073372;28;20200;-64
2023/10/04 10:32:54;;;;;;;2.50;1.50;;;;;;;;;;5073887;28;20204;-64
2023/10/04 10:35:36;;;;;;;1.70;1.40;;;;;;;;;;5073037;28;20203;-64
2023/10/04 10:38:18;;;;;;;2.08;1.60;;;;;;;;;;5071961;28;20298;-64
2023/10/04 10:40:46;;;;;;;2.50;1.70;;;;;;;;;;5073738;28;20224;-64
2023/10/04 10:43:14;;;;;;;1.80;1.42;;;;;;;;;;5073823;28;20613;-64
2023/10/04 10:45:43;;;;;;;2.03;1.30;;;;;;;;;;5074035;28;20204;-64
2023/10/04 10:48:12;;;;;;;2.22;1.60;;;;;;;;;;5074363;28;20693;-64
2023/10/04 10:50:41;;;;;;;1.83;1.45;;;;;;;;;;5074139;28;20534;-64
2023/10/04 10:53:10;;;;;;;1.45;1.20;;;;;;;;;;5074121;28;20271;-64
2023/10/04 10:55:38;;;;;;;1.95;1.42;;;;;;;;;;5073718;28;20204;-64
2023/10/04 10:58:07;;;;;;;2.22;1.50;;;;;;;;;;5073812;28;20315;-64
2023/10/04 11:00:35;;;;;;;1.85;1.52;;;;;;;;;;5074343;28;20228;-64
2023/10/04 11:03:09;;;;;;;1.75;1.20;;;;;;;;;;5074216;28;20613;-64
2023/10/04 11:05:37;;;;;;;1.88;1.40;;;;;;;;;;5073935;28;20204;-64
2023/10/04 11:08:06;;;;;;;2.90;1.70;;;;;;;;;;5073874;28;20298;-64
2023/10/04 11:10:36;;;;;;;2.03;1.40;;;;;;;;;;5074722;28;20200;-64
2023/10/04 11:13:07;;;;;;;2.53;1.52;;;;;;;;;;5074036;28;20204;-64
2023/10/04 11:15:36;;;;;;;1.95;1.65;;;;;;;;;;5073780;28;20706;-64
2023/10/04 11:18:06;;;;;;;1.95;1.40;;;;;;;;;;5074158;28;20200;-64
2023/10/04 11:20:36;;;;;;;1.42;1.25;;;;;;;;;;5074234;28;20224;-64
2023/10/04 11:23:03;;;;;;;1.80;1.45;;;;;;;;;;5074816;28;20359;-64
2023/10/04 11:25:31;;;;;;;2.08;1.50;;;;;;;;;;5073907;28;20575;-64
2023/10/04 11:27:59;;;;;;;1.52;1.40;;;;;;;;;;5072604;28;20295;-64
2023/10/04 11:30:27;;;;;;;1.70;1.40;;;;;;;;;;5072907;28;20197;-64
2023/10/04 11:32:54;;;;;;;2.38;1.67;;;;;;;;;;5073411;28;20231;-64
2023/10/04 11:35:24;;;;;;;2.08;1.50;;;;;;;;;;5072654;28;20252;-64
2023/10/04 11:37:51;;;;;;;1.83;1.40;;;;;;;;;;5073703;28;20298;-64
2023/10/04 11:40:22;;;;;;;1.58;1.30;;;;;;;;;;5072436;28;20326;-64
2023/10/04 11:42:59;;;;;;;1.92;1.45;;;;;;;;;;5072215;28;20204;-64
2023/10/04 11:45:26;;;;;;;2.55;1.48;;;;;;;;;;5073080;28;20219;-64
2023/10/04 11:48:00;;;;;;;2.05;1.30;;;;;;;;;;5072973;28;20204;-64
2023/10/04 11:50:43;;;;;;;1.67;1.52;;;;;;;;;;5076326;28;20238;-64
2023/10/04 11:53:12;;;;;;;2.30;1.52;;;;;;;;;;5076923;28;20207;-64
2023/10/04 11:55:40;;;;;;;2.00;1.48;;;;;;;;;;5076830;28;20204;-64
2023/10/04 11:58:10;;;;;;;2.15;1.77;;;;;;;;;;5077337;28;20200;-64
2023/10/04 12:00:38;;;;;;;1.58;1.30;;;;;;;;;;5077036;28;20228;-64
2023/10/04 12:03:06;;;;;;;1.50;1.30;;;;;;;;;;5076740;28;20196;-64
2023/10/04 12:05:33;;;;;;;2.92;1.60;;;;;;;;;;5077013;28;20364;-64
2023/10/04 12:08:01;;;;;;;1.90;1.38;;;;;;;;;;5078300;28;20655;-64
2023/10/04 12:10:30;;;;;;;1.60;1.50;;;;;;;;;;5077367;28;20611;-64
2023/10/04 12:12:57;;;;;;;1.70;1.33;;;;;;;;;;5076474;28;20262;-64
2023/10/04 12:15:26;;;;;;;1.58;1.45;;;;;;;;;;5077130;28;20212;-64
2023/10/04 12:17:53;;;;;;;2.00;1.30;;;;;;;;;;5076929;28;20303;-64
2023/10/04 12:20:21;;;;;;;2.05;1.50;;;;;;;;;;5076449;28;20228;-64
2023/10/04 12:22:49;;;;;;;2.13;1.20;;;;;;;;;;5077245;28;20208;-64
2023/10/04 12:25:17;;;;;;;1.60;1.33;;;;;;;;;;5076969;28;20211;-64
2023/10/04 12:27:47;;;;;;;1.73;1.50;;;;;;;;;;5076704;28;20212;-64
2023/10/04 12:30:18;;;;;;;1.77;1.25;;;;;;;;;;5076867;28;20582;-64
2023/10/04 12:32:47;;;;;;;2.15;1.42;;;;;;;;;;5076774;28;20547;-65
2023/10/04 12:35:14;;;;;;;2.03;1.48;;;;;;;;;;5076249;28;20207;-64
2023/10/04 12:37:42;;;;;;;2.15;1.45;;;;;;;;;;5075335;28;20196;-64
2023/10/04 12:40:17;;;;;;;1.73;1.40;;;;;;;;;;5075990;28;20224;-64
2023/10/04 12:42:48;;;;;;;1.50;1.10;;;;;;;;;;5075797;28;20210;-64
2023/10/04 12:45:16;;;;;;;1.90;1.48;;;;;;;;;;5075596;28;20230;-64
2023/10/04 12:47:43;;;;;;;1.55;1.38;;;;;;;;;;5076031;28;20208;-64
2023/10/04 12:50:14;;;;;;;2.25;1.30;;;;;;;;;;5076118;28;20228;-64
2023/10/04 12:52:42;;;;;;;1.85;1.23;;;;;;;;;;5076805;28;20204;-64
2023/10/04 12:55:11;;;;;;;1.85;1.55;;;;;;;;;;5076587;28;20215;-64
2023/10/04 12:57:39;;;;;;;1.55;1.35;;;;;;;;;;5075672;28;20203;-64
2023/10/04 13:00:13;;;;;;;2.28;1.40;;;;;;;;;;5074403;28;20231;-64
2023/10/04 13:02:42;;;;;;;1.75;1.30;;;;;;;;;;5075345;28;20199;-64
2023/10/04 13:05:13;;;;;;;1.75;1.38;;;;;;;;;;5074411;28;20212;-64
2023/10/04 13:07:41;;;;;;;2.67;1.33;;;;;;;;;;5075444;28;20285;-64
2023/10/04 13:10:09;;;;;;;1.98;1.38;;;;;;;;;;5075644;28;20200;-64
2023/10/04 13:12:38;;;;;;;1.83;1.27;;;;;;;;;;5075200;28;20200;-64
2023/10/04 13:15:06;;;;;;;1.33;1.23;;;;;;;;;;5075096;28;20211;-64
2023/10/04 13:17:35;;;;;;;1.80;1.67;;;;;;;;;;5070163;28;20277;-64
2023/10/04 13:20:03;;;;;;;1.60;1.42;;;;;;;;;;5075165;28;20322;-64
2023/10/04 13:22:31;;;;;;;2.28;1.60;;;;;;;;;;5075015;28;20204;-64
2023/10/04 13:24:58;;;;;;;1.52;1.25;;;;;;;;;;5075073;28;20196;-64
2023/10/04 13:27:26;;;;;;;2.25;1.35;;;;;;;;;;5074878;28;20212;-64
2023/10/04 13:29:53;;;;;;;2.17;1.20;;;;;;;;;;5074293;28;20271;-64
2023/10/04 13:32:23;;;;;;;1.42;1.25;;;;;;;;;;5074442;28;20204;-64
2023/10/04 13:34:52;;;;;;;1.92;1.38;;;;;;;;;;5073579;28;20200;-64
2023/10/04 13:37:20;;;;;;;1.38;1.27;;;;;;;;;;5074332;28;20197;-64
2023/10/04 13:39:47;;;;;;;3.08;1.48;;;;;;;;;;5073021;28;20903;-64
2023/10/04 13:42:15;;;;;;;2.70;1.17;;;;;;;;;;5073981;28;20231;-64
2023/10/04 13:44:43;;;;;;;2.63;1.50;;;;;;;;;;5074373;28;20269;-64
2023/10/04 13:47:11;;;;;;;1.98;1.45;;;;;;;;;;5074686;28;20576;-64
2023/10/04 13:49:40;;;;;;;3.92;1.60;;;;;;;;;;5074749;28;20234;-64
2023/10/04 13:52:10;;;;;;;3.00;1.77;;;;;;;;;;5074822;28;20318;-64
2023/10/04 13:54:40;;;;;;;3.95;1.40;;;;;;;;;;5073895;28;20281;-64
2023/10/04 13:57:09;;;;;;;3.03;1.80;;;;;;;;;;5074132;28;20212;-64
2023/10/04 13:59:37;;;;;;;4.38;1.50;;;;;;;;;;5074656;28;20325;-64
2023/10/04 14:02:05;;;;;;;2.90;1.88;;;;;;;;;;5074649;28;20771;-64
2023/10/04 14:04:33;;;;;;;3.30;1.90;;;;;;;;;;5074549;28;20285;-64
2023/10/04 14:07:01;;;;;;;3.40;1.90;;;;;;;;;;5074108;28;20559;-64
2023/10/04 14:09:32;;;;;;;2.45;1.65;;;;;;;;;;5073755;28;20308;-64
2023/10/04 14:11:59;;;;;;;4.45;1.92;;;;;;;;;;5071652;28;20254;-64
2023/10/04 14:14:28;;;;;;;2.38;1.70;;;;;;;;;;5072915;28;20211;-64
2023/10/04 14:16:55;;;;;;;2.60;1.63;;;;;;;;;;5073812;28;20205;-64
2023/10/04 14:19:23;;;;;;;4.10;2.00;;;;;;;;;;5073732;28;20204;-64
2023/10/04 14:21:50;;;;;;;2.55;1.88;;;;;;;;;;5075224;28;20693;-64
2023/10/04 14:24:18;;;;;;;3.80;1.90;;;;;;;;;;5074981;28;20602;-64
2023/10/04 14:26:51;;;;;;;2.20;1.60;;;;;;;;;;5074137;28;20292;-64
2023/10/04 14:29:20;;;;;;;2.80;1.58;;;;;;;;;;5074940;28;20208;-64
2023/10/04 14:31:47;;;;;;;2.65;1.98;;;;;;;;;;5073992;28;20291;-64
2023/10/04 14:34:15;;;;;;;2.55;1.60;;;;;;;;;;5074640;28;20213;-64
2023/10/04 14:36:42;;;;;;;3.90;2.10;;;;;;;;;;5074853;28;20295;-64
2023/10/04 14:39:11;;;;;;;3.03;1.73;;;;;;;;;;5073683;28;20291;-64
2023/10/04 14:41:39;;;;;;;2.60;1.77;;;;;;;;;;5074052;28;20255;-64
2023/10/04 14:44:08;;;;;;;2.25;1.63;;;;;;;;;;5073925;28;20200;-64
2023/10/04 14:46:36;;;;;;;3.90;2.03;;;;;;;;;;5074503;28;20204;-64
2023/10/04 14:49:05;;;;;;;2.50;1.50;;;;;;;;;;5074865;28;20307;-64
2023/10/04 14:51:33;;;;;;;2.30;1.80;;;;;;;;;;5072994;28;20224;-64
2023/10/04 14:54:00;;;;;;;2.30;1.60;;;;;;;;;;5073958;28;20314;-64
2023/10/04 14:56:28;;;;;;;1.80;1.60;;;;;;;;;;5073401;28;20625;-64
2023/10/04 14:58:55;;;;;;;2.58;1.80;;;;;;;;;;5073793;28;20246;-64
2023/10/04 15:01:24;;;;;;;1.98;1.60;;;;;;;;;;5073307;28;20220;-64